Terminal Aerodrome Forecast
Issued by NWS

Home | Current Version | Previous Version | Text Only | Print | Product List | Glossary On
Versions: 1 2 3 4 5 6 7 8 9 10 11 12 13 14 15 16 17 18 19 20 21 22 23 24 25 26 27 28 29 30 31 32 33 34 35 36 37 38 39 40 41 42
456
FTAK31 PANC 131744
TAFADU
TAF
PADU 131744Z 1318/1418 03005KT P6SM -RA BKN012 OVC020
      TEMPO 1318/1322 3SM -RA BR BKN006
     FM140100 04010KT 5SM -RA BR BKN007 OVC010
     FM140800 10004KT P6SM -RA SCT007 BKN012 OVC040=

USA.gov is the U.S. government's official web portal to all federal, state and local government web resources and services.